Time;durP1;ratioP1;P1;durP2;ratioP2;P2;SDS_P1;SDS_P2;PMS_P1;PMS_P2;Temp;Humidity;BMP_temperature;BMP_pressure;BME280_temperature;BME280_humidity;BME280_pressure;Samples;Min_cycle;Max_cycle;Signal;HPM_P1;HPM_P2
2021/08/12 00:02:24;;;;;;;11.22;5.80;;;;;;;12.25;75.60;99379.84;2171011;82;20945;-80
2021/08/12 00:05:24;;;;;;;8.65;5.95;;;;;;;12.19;75.40;99379.76;2170822;81;20957;-80
2021/08/12 00:08:25;;;;;;;14.98;6.50;;;;;;;12.15;75.37;99389.30;2170110;82;20937;-80
2021/08/12 00:11:25;;;;;;;9.83;6.35;;;;;;;12.12;75.60;99387.49;2171087;81;20929;-81
2021/08/12 00:14:26;;;;;;;10.10;6.30;;;;;;;12.12;75.77;99386.18;2170063;82;21345;-80
2021/08/12 00:17:26;;;;;;;10.23;6.50;;;;;;;12.11;75.68;99387.04;2169991;82;20960;-80
2021/08/12 00:20:27;;;;;;;8.80;6.47;;;;;;;12.07;75.90;99391.78;2169931;81;20965;-81
2021/08/12 00:23:27;;;;;;;8.73;6.03;;;;;;;12.05;76.05;99389.56;2171708;81;20973;-80
2021/08/12 00:26:28;;;;;;;12.88;6.50;;;;;;;12.01;75.71;99392.13;2170837;82;21372;-81
2021/08/12 00:29:28;;;;;;;7.33;5.90;;;;;;;11.94;75.79;99391.15;2170189;81;21345;-81
2021/08/12 00:32:29;;;;;;;12.20;6.62;;;;;;;11.92;75.86;99392.86;2170910;81;21008;-81
2021/08/12 00:35:29;;;;;;;16.12;6.33;;;;;;;11.91;75.93;99398.95;2172578;81;20965;-82
2021/08/12 00:38:30;;;;;;;10.63;6.20;;;;;;;11.92;75.99;99402.02;2170136;81;20980;-81
2021/08/12 00:41:35;;;;;;;11.28;6.60;;;;;;;11.89;75.92;99397.17;2171915;81;20964;-81
2021/08/12 00:44:33;;;;;;;12.37;6.65;;;;;;;11.86;75.96;99401.05;2125206;84;21313;-81
2021/08/12 00:47:33;;;;;;;9.95;6.20;;;;;;;11.84;76.06;99403.64;2125526;84;20999;-80
2021/08/12 00:50:34;;;;;;;8.55;6.40;;;;;;;11.83;76.03;99401.00;2128520;84;20960;-81
2021/08/12 00:53:34;;;;;;;11.12;6.00;;;;;;;11.78;76.01;99400.92;2127934;84;21443;-83
2021/08/12 00:56:35;;;;;;;8.50;5.97;;;;;;;11.78;76.14;99399.19;2128563;84;20943;-79
2021/08/12 00:59:35;;;;;;;7.33;6.13;;;;;;;11.74;75.98;99401.70;2128675;84;20948;-81
2021/08/12 01:02:36;;;;;;;9.85;6.75;;;;;;;11.72;76.20;99399.48;2128450;84;20960;-81
2021/08/12 01:05:36;;;;;;;124.92;14.20;;;;;;;11.71;76.26;99399.03;2128153;84;20996;-82
2021/08/12 01:08:37;;;;;;;10.30;7.55;;;;;;;11.69;76.76;99403.36;2117751;84;20977;-80
2021/08/12 01:11:38;;;;;;;25.12;7.78;;;;;;;11.72;76.54;99400.80;2108962;83;21299;-79
2021/08/12 01:14:38;;;;;;;8.97;6.13;;;;;;;11.68;76.47;99398.98;2108887;84;21692;-80
2021/08/12 01:17:39;;;;;;;21.02;7.03;;;;;;;11.63;76.32;99401.95;2109162;84;20977;-81
2021/08/12 01:20:39;;;;;;;9.20;6.97;;;;;;;11.65;76.45;99405.47;2109314;84;20985;-81
2021/08/12 01:23:40;;;;;;;8.38;6.97;;;;;;;11.65;76.48;99406.78;2108651;84;21079;-81
2021/08/12 01:26:40;;;;;;;9.63;7.27;;;;;;;11.63;76.43;99405.87;2108396;84;20996;-81
2021/08/12 01:29:41;;;;;;;11.10;6.87;;;;;;;11.60;76.67;99412.36;2108726;84;21017;-81
2021/08/12 01:32:42;;;;;;;11.97;6.80;;;;;;;11.60;76.72;99419.78;2108726;84;20961;-81
2021/08/12 01:35:43;;;;;;;12.03;6.57;;;;;;;11.56;76.51;99424.93;2108945;84;21370;-81
2021/08/12 01:38:44;;;;;;;9.60;7.25;;;;;;;11.52;76.47;99419.20;2108290;84;21026;-81
2021/08/12 01:41:46;;;;;;;10.77;7.30;;;;;;;11.47;76.50;99423.04;2109011;84;21021;-80
2021/08/12 01:44:46;;;;;;;8.10;7.03;;;;;;;11.43;76.41;99428.64;2109104;84;20969;-80
2021/08/12 01:47:47;;;;;;;11.10;7.40;;;;;;;11.40;76.63;99427.28;2109079;84;21005;-80
2021/08/12 01:50:47;;;;;;;7.97;7.00;;;;;;;11.37;76.76;99424.61;2109122;84;20985;-81
2021/08/12 01:53:48;;;;;;;11.08;6.17;;;;;;;11.36;76.77;99424.16;2109142;84;21101;-79
2021/08/12 01:56:48;;;;;;;13.40;7.00;;;;;;;11.33;76.70;99427.14;2108508;84;20993;-81
2021/08/12 01:59:49;;;;;;;10.90;6.67;;;;;;;11.32;76.82;99422.34;2108730;84;20966;-79
2021/08/12 02:02:49;;;;;;;14.03;6.83;;;;;;;11.30;76.93;99420.55;2108945;84;21425;-82
2021/08/12 02:05:50;;;;;;;19.90;7.90;;;;;;;11.29;76.97;99420.98;2108555;84;20998;-81
2021/08/12 02:08:51;;;;;;;9.30;6.50;;;;;;;11.27;77.00;99426.61;2108850;84;21005;-80
2021/08/12 02:11:51;;;;;;;10.17;6.27;;;;;;;11.26;76.92;99426.55;2108625;84;20958;-81
2021/08/12 02:14:52;;;;;;;33.77;8.40;;;;;;;11.22;76.67;99421.69;2108341;84;21026;-80
2021/08/12 02:17:52;;;;;;;11.37;6.37;;;;;;;11.19;76.93;99424.24;2108730;84;21396;-80
2021/08/12 02:20:53;;;;;;;11.90;6.90;;;;;;;11.20;76.81;99423.39;2108367;84;21017;-80
2021/08/12 02:23:53;;;;;;;8.23;6.07;;;;;;;11.19;76.96;99426.86;2108309;84;21048;-81
2021/08/12 02:26:53;;;;;;;8.67;6.13;;;;;;;11.21;76.83;99427.77;2108415;84;21045;-81
2021/08/12 02:29:54;;;;;;;19.67;7.07;;;;;;;11.15;76.68;99423.73;2108489;84;20969;-80
2021/08/12 02:32:54;;;;;;;12.97;6.43;;;;;;;11.11;76.77;99429.75;2108504;84;21321;-81
2021/08/12 02:35:55;;;;;;;8.67;6.23;;;;;;;11.08;76.75;99429.27;2108551;84;20966;-81
2021/08/12 02:38:56;;;;;;;9.27;6.40;;;;;;;11.08;76.96;99429.70;2108663;84;20962;-81
2021/08/12 02:41:56;;;;;;;11.70;6.70;;;;;;;11.05;76.71;99425.72;2108293;84;21033;-81
2021/08/12 02:44:56;;;;;;;14.37;6.50;;;;;;;11.02;76.87;99431.77;2108638;84;21404;-80
2021/08/12 02:47:57;;;;;;;10.87;6.63;;;;;;;11.00;76.80;99431.28;2108439;84;21028;-80
2021/08/12 02:50:57;;;;;;;13.30;7.30;;;;;;;10.97;76.91;99432.10;2108546;84;20957;-81
2021/08/12 02:54:00;;;;;;;10.30;7.70;;;;;;;10.92;76.77;99432.44;2110404;84;21052;-81
2021/08/12 02:57:00;;;;;;;13.83;6.63;;;;;;;10.90;77.09;99425.00;2109270;84;21052;-80
2021/08/12 03:00:01;;;;;;;9.10;6.20;;;;;;;10.87;76.87;99426.67;2109493;84;21041;-81
2021/08/12 03:03:01;;;;;;;11.67;6.70;;;;;;;10.81;76.94;99428.31;2109541;84;20989;-80
2021/08/12 03:06:02;;;;;;;11.00;6.63;;;;;;;10.80;77.04;99424.36;2109452;84;21476;-82
2021/08/12 03:09:02;;;;;;;12.43;7.47;;;;;;;10.81;77.19;99427.42;2109847;84;20965;-81
2021/08/12 03:12:03;;;;;;;11.40;6.77;;;;;;;10.82;77.31;99431.38;2109505;84;20950;-80
2021/08/12 03:15:03;;;;;;;11.87;7.57;;;;;;;10.82;77.14;99431.38;2109434;84;21749;-81
2021/08/12 03:18:04;;;;;;;9.37;6.87;;;;;;;10.79;76.94;99427.39;2109474;84;20973;-81
2021/08/12 03:21:04;;;;;;;13.63;6.80;;;;;;;10.73;77.04;99427.27;2109529;84;20985;-81
2021/08/12 03:24:05;;;;;;;15.20;6.80;;;;;;;10.71;77.16;99431.58;2109193;84;21076;-81
2021/08/12 03:27:08;;;;;;;11.77;7.50;;;;;;;10.73;77.31;99432.50;2109365;84;20985;-81
2021/08/12 03:30:08;;;;;;;13.97;6.73;;;;;;;10.76;77.30;99435.59;2109064;84;21037;-79
2021/08/12 03:33:09;;;;;;;9.30;6.47;;;;;;;10.78;77.25;99437.39;2109324;84;21021;-82
2021/08/12 03:36:10;;;;;;;9.77;6.57;;;;;;;10.82;77.40;99437.91;2109334;84;20989;-82
2021/08/12 03:39:10;;;;;;;9.77;6.60;;;;;;;10.82;77.27;99440.52;2108814;84;21005;-81
2021/08/12 03:42:11;;;;;;;9.47;6.30;;;;;;;10.82;77.38;99447.47;2109060;84;20958;-80
2021/08/12 03:45:11;;;;;;;13.50;6.60;;;;;;;10.87;77.31;99449.75;2109462;84;21053;-82
2021/08/12 03:48:12;;;;;;;11.10;6.37;;;;;;;10.87;77.23;99452.36;2109335;84;21012;-84
2021/08/12 03:51:12;;;;;;;13.77;7.67;;;;;;;10.89;77.26;99452.39;2109183;84;21008;-80
2021/08/12 03:54:13;;;;;;;12.17;8.27;;;;;;;10.95;77.33;99451.20;2106493;84;21017;-81
2021/08/12 03:57:13;;;;;;;10.70;7.10;;;;;;;11.01;77.07;99459.16;2106494;84;20958;-81
2021/08/12 04:00:14;;;;;;;9.20;6.40;;;;;;;11.04;77.18;99461.41;2108684;84;21024;-81
2021/08/12 04:03:14;;;;;;;8.07;6.43;;;;;;;11.14;77.15;99457.25;2108613;84;20993;-80
2021/08/12 04:06:16;;;;;;;9.30;6.70;;;;;;;11.14;76.82;99451.59;2108525;84;21017;-81
2021/08/12 04:09:17;;;;;;;10.23;7.30;;;;;;;11.14;76.83;99463.36;2108901;84;20982;-81
2021/08/12 04:12:17;;;;;;;14.07;6.93;;;;;;;11.18;76.89;99459.95;2109050;84;21408;-82
2021/08/12 04:15:20;;;;;;;101.00;13.40;;;;;;;11.24;76.82;99457.88;2108553;84;20989;-82
2021/08/12 04:18:20;;;;;;;9.10;6.80;;;;;;;11.35;77.13;99464.22;2108878;84;21076;-81
2021/08/12 04:21:21;;;;;;;19.20;7.30;;;;;;;11.45;76.86;99466.14;2108723;84;21033;-80
2021/08/12 04:24:22;;;;;;;10.13;7.15;;;;;;;11.54;76.84;99467.16;2108596;84;21079;-82
2021/08/12 04:27:22;;;;;;;26.23;7.83;;;;;;;11.61;76.55;99473.84;2109099;84;21385;-81
2021/08/12 04:30:22;;;;;;;27.45;7.35;;;;;;;11.65;76.45;99471.73;2108878;84;20942;-80
2021/08/12 04:33:26;;;;;;;32.43;7.50;;;;;;;11.70;76.46;99479.66;2108784;84;20982;-80
2021/08/12 04:36:26;;;;;;;22.70;7.55;;;;;;;11.80;76.70;99481.61;2108462;84;20997;-79
2021/08/12 04:39:27;;;;;;;11.00;7.53;;;;;;;11.99;76.85;99475.82;2107898;84;21013;-79
2021/08/12 04:42:28;;;;;;;17.55;8.15;;;;;;;12.18;76.81;99470.91;2107593;84;20950;-79
2021/08/12 04:45:28;;;;;;;15.58;8.23;;;;;;;12.40;76.86;99471.25;2107475;84;20985;-80
2021/08/12 04:48:29;;;;;;;12.68;8.08;;;;;;;12.66;76.78;99475.54;2107123;84;20966;-80
2021/08/12 04:51:30;;;;;;;76.30;11.90;;;;;;;12.94;76.75;99482.02;2107052;84;21352;-80
2021/08/12 04:54:30;;;;;;;30.08;9.38;;;;;;;13.25;76.66;99475.89;2106960;84;21405;-80
2021/08/12 04:57:31;;;;;;;15.72;8.75;;;;;;;13.54;76.50;99480.13;2106876;84;21357;-81
2021/08/12 05:00:32;;;;;;;18.80;10.05;;;;;;;13.88;76.44;99476.98;2107683;84;21369;-81
2021/08/12 05:03:32;;;;;;;111.77;18.77;;;;;;;14.16;75.78;99471.52;2108094;84;20977;-81
2021/08/12 05:06:33;;;;;;;21.75;9.05;;;;;;;14.43;75.48;99478.73;2108010;84;20997;-83
2021/08/12 05:09:34;;;;;;;17.50;10.28;;;;;;;14.64;74.81;99476.23;2107998;84;21009;-81
2021/08/12 05:12:35;;;;;;;19.45;10.68;;;;;;;14.89;74.17;99479.02;2107488;84;20941;-80
2021/08/12 05:15:35;;;;;;;18.32;9.90;;;;;;;15.09;73.49;99479.11;2107943;84;20965;-81
2021/08/12 05:18:36;;;;;;;15.13;10.53;;;;;;;15.32;72.87;99487.95;2107820;84;21397;-82
2021/08/12 05:21:36;;;;;;;13.53;10.10;;;;;;;15.55;72.61;99486.69;2107729;84;21519;-82
2021/08/12 05:24:37;;;;;;;19.75;10.65;;;;;;;15.66;71.86;99483.70;2108202;84;21059;-81
2021/08/12 05:27:38;;;;;;;12.55;10.53;;;;;;;15.82;71.40;99488.11;2108196;84;21089;-81
2021/08/12 05:30:38;;;;;;;12.43;10.43;;;;;;;15.93;70.99;99485.05;2108396;84;20988;-82
2021/08/12 05:33:39;;;;;;;15.40;10.50;;;;;;;16.13;70.74;99489.44;2108722;84;21037;-83
2021/08/12 05:36:41;;;;;;;12.78;10.28;;;;;;;16.49;69.80;99498.66;2109043;84;20973;-83
2021/08/12 05:39:41;;;;;;;14.10;9.40;;;;;;;16.49;69.80;99498.66;2108762;84;21065;-82
2021/08/12 05:42:42;;;;;;;29.25;11.48;;;;;;;16.83;70.06;99502.57;2108665;84;20969;-82
2021/08/12 05:45:42;;;;;;;13.70;10.00;;;;;;;17.63;68.04;99499.16;2108943;84;21008;-82
2021/08/12 05:48:43;;;;;;;16.50;10.80;;;;;;;17.92;67.92;99502.51;2108157;84;21377;-80
2021/08/12 05:51:43;;;;;;;13.03;10.40;;;;;;;17.81;65.86;99514.47;2108748;84;21021;-82
2021/08/12 05:54:44;;;;;;;12.23;10.90;;;;;;;17.39;66.03;99506.33;2108487;84;21032;-79
2021/08/12 05:57:44;;;;;;;14.33;10.23;;;;;;;17.45;66.59;99509.38;2107508;84;21017;-80
2021/08/12 06:00:45;;;;;;;10.40;9.30;;;;;;;17.57;67.72;99510.63;2108191;84;20981;-82
2021/08/12 06:03:45;;;;;;;14.47;9.58;;;;;;;18.40;66.87;99509.19;2107699;84;21381;-82
2021/08/12 06:06:46;;;;;;;12.88;9.00;;;;;;;19.17;64.48;99511.07;2108520;84;21036;-82
2021/08/12 06:09:46;;;;;;;11.80;10.23;;;;;;;19.41;64.09;99508.11;2107681;84;21040;-81
2021/08/12 06:12:47;;;;;;;14.85;10.43;;;;;;;19.62;62.31;99513.14;2108849;84;21009;-83
2021/08/12 06:15:47;;;;;;;14.85;11.12;;;;;;;19.44;61.88;99504.09;2108353;84;21706;-81
2021/08/12 06:18:48;;;;;;;18.23;11.65;;;;;;;19.08;61.96;99506.32;2108549;84;21001;-82
2021/08/12 06:21:49;;;;;;;14.38;11.48;;;;;;;18.91;62.73;99511.34;2108698;84;21041;-83
2021/08/12 06:24:49;;;;;;;16.30;9.63;;;;;;;19.30;62.34;99508.70;2109079;84;21025;-83
2021/08/12 06:27:50;;;;;;;14.45;9.65;;;;;;;19.31;61.49;99511.77;2108987;84;21052;-82
2021/08/12 06:30:50;;;;;;;15.68;10.48;;;;;;;19.58;62.34;99519.38;2108763;84;21022;-81
2021/08/12 06:33:51;;;;;;;12.20;9.88;;;;;;;19.93;59.86;99517.55;2109509;84;21036;-81
2021/08/12 06:36:52;;;;;;;10.45;9.30;;;;;;;19.61;60.09;99518.46;2109472;84;21255;-83
2021/08/12 06:39:52;;;;;;;15.08;10.40;;;;;;;19.53;60.69;99517.24;2109796;84;21076;-82
2021/08/12 06:42:53;;;;;;;10.50;9.45;;;;;;;19.68;60.59;99517.48;2109920;84;21397;-82
2021/08/12 06:45:53;;;;;;;12.58;10.18;;;;;;;19.72;60.91;99513.89;2110370;84;21460;-83
2021/08/12 06:48:54;;;;;;;10.93;9.83;;;;;;;19.75;61.06;99522.23;2109610;84;20974;-81
2021/08/12 06:51:54;;;;;;;11.20;8.85;;;;;;;19.76;60.59;99521.34;2109962;84;20997;-81
2021/08/12 06:54:55;;;;;;;49.75;10.58;;;;;;;20.31;60.90;99517.41;2115537;84;21013;-82
2021/08/12 06:57:55;;;;;;;13.00;8.55;;;;;;;20.33;59.49;99525.77;2109154;84;20962;-81
2021/08/12 07:00:56;;;;;;;16.45;8.48;;;;;;;20.13;59.43;99521.23;2109076;84;21009;-81
2021/08/12 07:03:58;;;;;;;10.03;8.15;;;;;;;20.39;60.47;99523.91;2109627;84;20973;-85
2021/08/12 07:06:59;;;;;;;117.47;14.63;;;;;;;21.07;59.51;99518.72;2109149;84;21407;-80
2021/08/12 07:09:59;;;;;;;8.73;7.22;;;;;;;20.95;58.33;99519.83;2108525;84;21045;-81
2021/08/12 07:13:00;;;;;;;12.75;7.37;;;;;;;20.80;57.93;99518.77;2109089;84;20993;-80
2021/08/12 07:16:01;;;;;;;7.95;6.65;;;;;;;20.82;58.19;99518.77;2108231;84;21001;-81
2021/08/12 07:19:02;;;;;;;19.17;7.25;;;;;;;21.25;58.64;99521.03;2108473;84;21005;-81
2021/08/12 07:22:02;;;;;;;12.40;5.62;;;;;;;21.87;56.56;99513.50;2109241;84;21012;-79
2021/08/12 07:25:03;;;;;;;8.23;5.83;;;;;;;21.91;55.19;99511.64;2109232;84;21020;-81
2021/08/12 07:28:04;;;;;;;9.08;6.25;;;;;;;22.41;55.43;99519.73;2109406;84;21039;-83
2021/08/12 07:31:04;;;;;;;8.08;5.15;;;;;;;22.78;52.16;99521.01;2109353;84;21004;-81
2021/08/12 07:34:05;;;;;;;7.35;5.30;;;;;;;22.54;52.67;99518.55;2109452;84;21704;-81
2021/08/12 07:37:05;;;;;;;7.05;5.67;;;;;;;22.41;51.11;99521.07;2109963;84;20993;-81
2021/08/12 07:40:06;;;;;;;18.55;6.50;;;;;;;22.22;51.30;99521.98;2109482;84;21029;-82
2021/08/12 07:43:06;;;;;;;9.25;5.35;;;;;;;22.35;52.58;99529.66;2110413;84;20973;-82
2021/08/12 07:46:07;;;;;;;5.80;5.22;;;;;;;22.68;51.50;99528.83;2110077;84;20989;-82
2021/08/12 07:49:07;;;;;;;6.17;5.15;;;;;;;22.63;50.23;99528.08;2110300;84;21045;-84
2021/08/12 07:52:08;;;;;;;6.33;5.40;;;;;;;22.67;50.50;99528.41;2108805;84;21459;-81
2021/08/12 07:55:09;;;;;;;6.08;5.28;;;;;;;23.14;50.84;99524.48;2108461;84;21100;-82
2021/08/12 07:58:12;;;;;;;12.10;4.67;;;;;;;23.09;49.74;99528.19;2108364;84;20949;-84
2021/08/12 08:01:19;;;;;;;6.50;4.67;;;;;;;23.14;49.57;99529.80;2108733;84;21079;-80
2021/08/12 08:04:20;;;;;;;4.55;4.15;;;;;;;23.74;49.16;99528.98;2109194;84;20970;-82
2021/08/12 08:07:21;;;;;;;7.97;4.97;;;;;;;23.90;46.96;99528.03;2108825;84;21032;-82
2021/08/12 08:10:21;;;;;;;5.03;4.40;;;;;;;23.60;45.35;99531.65;2108339;84;20998;-82
2021/08/12 08:13:22;;;;;;;11.20;4.95;;;;;;;23.57;46.39;99533.07;2109873;84;21021;-81
2021/08/12 08:16:26;;;;;;;42.95;6.87;;;;;;;23.46;45.88;99526.23;2110027;84;20966;-81
2021/08/12 08:19:31;;;;;;;4.92;4.45;;;;;;;23.63;47.06;99530.22;2109943;84;20978;-82
2021/08/12 08:22:35;;;;;;;9.43;4.40;;;;;;;23.83;45.16;99533.15;2110033;84;21026;-82
2021/08/12 08:25:35;;;;;;;;;;;;;;;24.12;45.65;99523.77;2111744;84;21131;-84
2021/08/12 08:28:35;;;;;;;4.12;3.75;;;;;;;24.12;45.85;99531.77;2109026;84;20102;-83
2021/08/12 08:31:36;;;;;;;5.30;4.62;;;;;;;24.10;44.12;99536.73;2109260;84;21040;-82
2021/08/12 08:34:36;;;;;;;5.25;4.53;;;;;;;23.79;43.36;99537.70;2109451;84;21013;-81
2021/08/12 08:37:37;;;;;;;9.53;3.80;;;;;;;23.71;43.58;99540.19;2108822;84;21024;-82
2021/08/12 08:40:38;;;;;;;5.05;4.15;;;;;;;24.05;44.80;99543.55;2109570;84;21465;-80
2021/08/12 08:43:38;;;;;;;5.12;4.53;;;;;;;24.28;43.14;99544.67;2108881;84;21008;-81
2021/08/12 08:46:39;;;;;;;4.80;4.17;;;;;;;24.02;42.68;99542.31;2108831;84;21053;-80
2021/08/12 08:49:39;;;;;;;4.55;3.83;;;;;;;23.97;42.73;99557.59;2109282;84;20985;-83
2021/08/12 08:52:40;;;;;;;4.03;3.72;;;;;;;24.10;42.48;99552.28;2109930;84;21005;-82
2021/08/12 08:55:42;;;;;;;4.70;4.30;;;;;;;24.48;42.77;99550.22;2091842;84;21029;-81
2021/08/12 09:02:01;;;;;;;4.05;3.65;;;;;;;24.27;40.00;99546.89;2239525;79;22598;-81
2021/08/12 09:05:01;;;;;;;4.20;3.40;;;;;;;23.46;41.60;99554.22;2190776;81;21028;-81
2021/08/12 09:08:02;;;;;;;6.70;3.90;;;;;;;22.82;42.45;99558.64;2190916;81;20980;-79
2021/08/12 09:11:04;;;;;;;4.45;4.05;;;;;;;22.97;42.78;99559.14;2170727;81;21316;-81
2021/08/12 09:14:05;;;;;;;6.20;4.10;;;;;;;23.58;43.62;99558.80;2191775;81;21015;-80
2021/08/12 09:17:06;;;;;;;6.55;4.03;;;;;;;24.04;42.71;99549.80;2190898;81;20980;-80
2021/08/12 09:20:06;;;;;;;7.05;4.25;;;;;;;24.83;42.51;99552.14;2190783;81;21015;-81
2021/08/12 09:23:07;;;;;;;5.50;4.00;;;;;;;25.48;40.86;99547.14;2190709;81;20964;-82
2021/08/12 09:26:08;;;;;;;4.62;4.22;;;;;;;25.76;38.67;99552.80;2191101;81;20995;-80
2021/08/12 09:29:09;;;;;;;4.95;4.22;;;;;;;25.37;38.77;99556.90;2191789;81;21383;-81
2021/08/12 09:32:09;;;;;;;5.10;4.60;;;;;;;25.45;39.14;99558.41;2190348;81;20965;-80
2021/08/12 09:35:10;;;;;;;4.75;4.30;;;;;;;25.21;39.42;99550.38;2191502;81;21007;-80
2021/08/12 09:38:11;;;;;;;18.32;5.47;;;;;;;25.28;39.44;99553.69;2190616;81;20964;-80
2021/08/12 09:41:11;;;;;;;6.72;4.60;;;;;;;25.51;39.68;99545.69;2191319;81;21019;-81
2021/08/12 09:44:12;;;;;;;4.90;4.40;;;;;;;25.73;39.33;99558.27;2190644;81;21392;-80
2021/08/12 09:47:12;;;;;;;7.55;4.50;;;;;;;25.69;38.70;99555.72;2189686;81;20952;-81
2021/08/12 09:50:13;;;;;;;4.67;4.28;;;;;;;25.06;39.82;99558.91;2188984;81;20995;-80
2021/08/12 09:53:13;;;;;;;7.47;4.55;;;;;;;24.70;40.46;99557.91;2188880;81;20964;-79
2021/08/12 09:56:14;;;;;;;5.20;4.70;;;;;;;24.74;40.49;99558.20;2189930;81;20987;-82
2021/08/12 09:59:14;;;;;;;5.10;4.60;;;;;;;24.89;40.26;99562.61;2189902;81;21018;-81
2021/08/12 10:02:15;;;;;;;;;;;;;;;;;;;;;
2021/08/12 10:05:17;;;;;;;11.70;4.75;;;;;;;25.12;40.10;99557.36;2161271;82;21004;-80
2021/08/12 10:08:18;;;;;;;5.30;4.12;;;;;;;25.80;40.65;99549.95;2174958;82;21381;-81
2021/08/12 10:11:18;;;;;;;6.08;3.83;;;;;;;26.26;39.04;99551.69;2173519;81;20952;-81
2021/08/12 10:14:19;;;;;;;5.75;4.00;;;;;;;26.18;37.09;99551.13;2172648;81;20984;-81
2021/08/12 10:17:20;;;;;;;15.93;4.95;;;;;;;25.78;37.48;99559.83;2173391;81;20980;-80
2021/08/12 10:20:20;;;;;;;4.47;3.95;;;;;;;25.26;38.16;99555.55;2172594;82;20992;-80
2021/08/12 10:23:21;;;;;;;9.40;4.35;;;;;;;25.24;38.33;99563.62;2172301;82;20964;-81
2021/08/12 10:26:22;;;;;;;5.08;4.40;;;;;;;25.18;39.40;99561.17;2172452;81;21466;-81
2021/08/12 10:29:23;;;;;;;5.72;4.08;;;;;;;24.96;38.36;99558.33;2172916;81;21004;-81
2021/08/12 10:32:24;;;;;;;7.20;4.20;;;;;;;24.75;38.64;99558.63;2172436;81;21386;-81
2021/08/12 10:35:24;;;;;;;5.65;4.08;;;;;;;25.46;39.32;99560.16;2173013;81;20992;-80
2021/08/12 10:38:25;;;;;;;5.25;4.00;;;;;;;26.08;37.60;99560.92;2173041;82;21019;-81
2021/08/12 10:41:25;;;;;;;4.33;3.92;;;;;;;25.95;35.62;99556.50;2172515;81;21403;-81
2021/08/12 10:44:26;;;;;;;120.33;11.57;;;;;;;25.55;35.76;99549.98;2173422;81;21008;-81
2021/08/12 10:47:26;;;;;;;4.72;4.33;;;;;;;24.93;36.79;99554.90;2172964;81;21031;-81
2021/08/12 10:50:31;;;;;;;5.20;4.65;;;;;;;24.52;37.93;99554.53;2160363;82;20975;-80
2021/08/12 10:53:34;;;;;;;4.37;3.98;;;;;;;24.36;38.67;99562.17;2162704;82;20968;-80
2021/08/12 10:56:36;;;;;;;26.87;6.17;;;;;;;24.60;37.20;99557.81;2162840;82;21372;-80
2021/08/12 10:59:39;;;;;;;5.25;3.90;;;;;;;25.23;37.11;99557.88;2161727;82;20921;-79
2021/08/12 11:02:44;;;;;;;5.22;3.72;;;;;;;25.59;35.69;99549.41;2161546;82;20944;-81
2021/08/12 11:05:46;;;;;;;5.15;3.72;;;;;;;25.80;35.54;99551.28;2161820;82;20956;-81
2021/08/12 11:09:10;;;;;;;4.90;3.93;;;;;;;26.10;35.78;99541.20;2161795;82;20945;-79
2021/08/12 11:11:54;;;;;;;5.15;3.95;;;;;;;26.76;35.40;99547.86;2107981;84;21063;-81
2021/08/12 11:14:55;;;;;;;4.95;4.42;;;;;;;27.15;34.41;99546.17;2127588;84;20935;-81
2021/08/12 11:17:58;;;;;;;4.60;4.20;;;;;;;26.79;34.00;99546.38;2166091;82;20945;-79
2021/08/12 11:20:59;;;;;;;10.82;4.62;;;;;;;26.68;35.16;99545.51;2171737;81;21439;-80
2021/08/12 11:23:59;;;;;;;8.10;4.40;;;;;;;26.42;33.78;99549.28;2172883;82;20996;-80
2021/08/12 11:27:00;;;;;;;5.20;4.65;;;;;;;26.24;34.07;99549.55;2173078;82;21346;-81
2021/08/12 11:30:00;;;;;;;5.30;4.15;;;;;;;26.35;34.31;99554.48;2173011;81;21367;-83
2021/08/12 11:33:02;;;;;;;6.22;3.90;;;;;;;26.43;32.58;99555.51;2172972;81;21349;-82
2021/08/12 11:36:02;;;;;;;5.33;4.17;;;;;;;26.40;33.69;99549.81;2172838;82;20917;-82
2021/08/12 11:39:03;;;;;;;5.08;3.75;;;;;;;26.63;33.96;99547.05;2172779;81;20996;-81
2021/08/12 11:42:04;;;;;;;6.40;4.12;;;;;;;26.75;32.30;99543.44;2174078;81;21012;-82
2021/08/12 11:45:04;;;;;;;4.30;3.85;;;;;;;26.77;32.30;99541.56;2173856;82;21004;-82
2021/08/12 11:48:05;;;;;;;6.53;4.25;;;;;;;26.69;33.89;99542.36;2173734;81;21372;-82
2021/08/12 11:51:05;;;;;;;5.55;4.28;;;;;;;26.27;34.38;99529.81;2173615;82;21004;-82
2021/08/12 11:54:06;;;;;;;4.65;4.10;;;;;;;25.63;35.56;99541.67;2173839;81;20948;-81
2021/08/12 11:57:06;;;;;;;6.62;5.17;;;;;;;25.48;37.24;99546.27;2173427;81;20989;-81
2021/08/12 12:00:07;;;;;;;22.17;6.90;;;;;;;25.65;37.43;99543.83;2172647;81;21079;-83
2021/08/12 12:03:07;;;;;;;9.68;7.53;;;;;;;25.68;35.81;99546.41;2172692;81;21337;-83
2021/08/12 12:06:08;;;;;;;5.33;4.65;;;;;;;26.02;37.23;99538.84;2172659;82;20933;-80
2021/08/12 12:09:08;;;;;;;5.45;4.25;;;;;;;26.22;36.37;99537.16;2171952;82;20925;-80
2021/08/12 12:12:12;;;;;;;5.27;4.20;;;;;;;25.89;36.40;99542.03;2127981;83;21420;-81
2021/08/12 12:15:14;;;;;;;4.62;4.22;;;;;;;25.49;35.48;99541.33;2107541;84;20979;-82
2021/08/12 12:18:15;;;;;;;8.40;4.45;;;;;;;24.99;37.06;99545.36;2128845;84;20991;-82
2021/08/12 12:21:16;;;;;;;4.67;4.25;;;;;;;24.65;38.04;99549.19;2128603;84;21363;-83
2021/08/12 12:24:17;;;;;;;5.90;4.20;;;;;;;24.38;38.48;99541.65;2128760;84;21024;-82
2021/08/12 12:27:18;;;;;;;6.30;4.10;;;;;;;24.43;38.78;99541.49;2127251;84;21379;-80
2021/08/12 12:30:18;;;;;;;4.40;4.00;;;;;;;24.86;37.87;99534.67;2127973;84;20992;-81
2021/08/12 12:33:19;;;;;;;7.25;4.05;;;;;;;25.27;38.20;99538.13;2128814;84;21010;-80
2021/08/12 12:36:19;;;;;;;4.05;3.40;;;;;;;25.79;36.75;99535.30;2127726;84;20964;-79
2021/08/12 12:39:20;;;;;;;6.15;4.20;;;;;;;26.47;35.03;99532.56;2127692;84;20980;-81
2021/08/12 12:42:20;;;;;;;4.17;3.77;;;;;;;27.06;33.64;99536.34;2128243;84;20960;-81
2021/08/12 12:45:21;;;;;;;4.35;3.95;;;;;;;27.23;32.50;99529.28;2128308;84;20995;-81
2021/08/12 12:48:22;;;;;;;4.50;3.98;;;;;;;27.53;34.72;99528.81;2127666;84;20980;-81
2021/08/12 12:51:22;;;;;;;5.28;3.58;;;;;;;28.01;34.29;99524.80;2127643;84;20971;-80
2021/08/12 12:54:23;;;;;;;3.58;3.27;;;;;;;28.24;30.59;99523.23;2127523;84;20955;-81
2021/08/12 12:57:23;;;;;;;4.20;3.80;;;;;;;28.09;31.29;99530.66;2128148;84;20920;-81
2021/08/12 13:00:24;;;;;;;8.55;4.15;;;;;;;28.38;32.60;99522.08;2128209;83;21000;-81
2021/08/12 13:03:24;;;;;;;3.92;3.50;;;;;;;28.47;33.18;99526.11;2128192;84;20937;-82
2021/08/12 13:06:25;;;;;;;4.78;3.67;;;;;;;28.65;31.07;99520.31;2127329;84;20948;-82
2021/08/12 13:09:25;;;;;;;4.10;3.15;;;;;;;28.38;30.82;99518.05;2127632;84;21296;-81
2021/08/12 13:12:26;;;;;;;4.35;3.95;;;;;;;28.42;31.25;99510.70;2128200;84;20944;-82
2021/08/12 13:15:26;;;;;;;6.65;3.90;;;;;;;28.53;32.29;99512.38;2128630;84;20972;-82
2021/08/12 13:18:27;;;;;;;4.28;3.87;;;;;;;28.44;30.49;99507.00;2128848;84;20979;-81
2021/08/12 13:21:27;;;;;;;3.80;3.45;;;;;;;28.24;30.76;99512.50;2129001;84;21031;-81
2021/08/12 13:24:28;;;;;;;5.42;4.20;;;;;;;27.76;30.36;99503.19;2129218;84;21415;-80
2021/08/12 13:27:28;;;;;;;4.17;3.70;;;;;;;27.45;31.73;99506.37;2128843;84;20991;-80
2021/08/12 13:30:29;;;;;;;6.75;3.62;;;;;;;27.10;31.92;99508.47;2129439;84;21019;-82
2021/08/12 13:33:29;;;;;;;5.78;3.90;;;;;;;26.53;32.16;99510.89;2128714;84;21376;-79
2021/08/12 13:36:35;;;;;;;5.08;3.62;;;;;;;26.30;33.22;99510.95;2129218;84;21356;-80
2021/08/12 13:39:35;;;;;;;4.87;3.80;;;;;;;26.16;33.65;99507.52;2129097;84;21487;-83
2021/08/12 13:42:36;;;;;;;5.22;3.83;;;;;;;25.90;33.62;99503.19;2129604;84;20974;-81
2021/08/12 13:45:36;;;;;;;4.00;3.60;;;;;;;25.52;34.78;99506.47;2129544;84;20995;-81
2021/08/12 13:48:37;;;;;;;4.30;3.90;;;;;;;25.30;36.24;99504.61;2129581;84;21040;-80
2021/08/12 13:51:37;;;;;;;4.58;3.75;;;;;;;25.09;35.61;99506.25;2128712;84;21019;-80
2021/08/12 13:54:39;;;;;;;21.25;5.80;;;;;;;24.99;35.77;99500.84;2128221;84;20995;-80
2021/08/12 13:57:40;;;;;;;12.53;5.65;;;;;;;25.06;37.80;99502.36;2128812;84;21055;-80
2021/08/12 14:00:40;;;;;;;12.33;4.97;;;;;;;25.37;38.44;99500.78;2128508;83;21031;-81
2021/08/12 14:03:41;;;;;;;9.83;5.12;;;;;;;25.64;38.73;99500.18;2129404;84;20995;-81
2021/08/12 14:06:47;;;;;;;4.58;4.10;;;;;;;25.96;38.79;99496.25;2128944;84;21043;-81
2021/08/12 14:09:48;;;;;;;5.95;4.20;;;;;;;26.16;38.74;99491.92;2129333;84;20996;-82